createdAt,value
2018-09-24T00:00:16.253Z,1.60
2018-09-24T00:02:44.926Z,1.70
2018-09-24T00:05:13.952Z,1.67
2018-09-24T00:07:42.807Z,1.50
2018-09-24T00:10:11.797Z,1.47
2018-09-24T00:12:40.870Z,1.60
2018-09-24T00:15:09.639Z,1.50
2018-09-24T00:17:38.704Z,1.80
2018-09-24T00:20:07.860Z,1.77
2018-09-24T00:22:36.792Z,1.70
2018-09-24T00:25:05.322Z,1.50
2018-09-24T00:27:34.365Z,1.73
2018-09-24T00:30:03.359Z,1.70
2018-09-24T00:32:31.947Z,1.57
2018-09-24T00:35:00.860Z,1.60
2018-09-24T00:37:29.814Z,1.60
2018-09-24T00:39:58.708Z,1.70
2018-09-24T00:42:27.327Z,1.50
2018-09-24T00:44:56.002Z,1.50
2018-09-24T00:47:24.499Z,1.60
2018-09-24T00:49:52.976Z,1.47
2018-09-24T00:52:22.744Z,1.67
2018-09-24T00:54:51.364Z,1.60
2018-09-24T00:57:20.134Z,1.80
2018-09-24T00:59:48.565Z,1.70
2018-09-24T01:02:17.288Z,1.60
2018-09-24T01:04:46.165Z,1.40
2018-09-24T01:07:14.692Z,1.40
2018-09-24T01:09:43.322Z,1.60
2018-09-24T01:12:12.348Z,1.57
2018-09-24T01:14:41.122Z,1.50
2018-09-24T01:17:09.949Z,1.60
2018-09-24T01:19:38.840Z,1.30
2018-09-24T01:22:07.671Z,1.40
2018-09-24T01:24:36.409Z,1.40
2018-09-24T01:27:05.077Z,1.57
2018-09-24T01:29:33.802Z,1.67
2018-09-24T01:32:02.437Z,1.50
2018-09-24T01:34:31.353Z,1.43
2018-09-24T01:36:59.939Z,1.33
2018-09-24T01:39:28.558Z,1.70
2018-09-24T01:41:57.282Z,1.70
2018-09-24T01:44:25.779Z,1.50
2018-09-24T01:46:54.377Z,1.40
2018-09-24T01:49:23.143Z,1.90
2018-09-24T01:51:51.723Z,1.90
2018-09-24T01:54:21.294Z,1.90
2018-09-24T01:56:50.177Z,1.57
2018-09-24T01:59:18.918Z,1.70
2018-09-24T02:01:47.917Z,1.60
2018-09-24T02:04:16.675Z,1.87
2018-09-24T02:06:45.905Z,1.80
2018-09-24T02:09:14.836Z,1.70
2018-09-24T02:11:44.023Z,2.07
2018-09-24T02:14:12.867Z,2.00
2018-09-24T02:16:41.883Z,1.80
2018-09-24T02:19:10.742Z,1.77
2018-09-24T02:21:40.912Z,2.03
2018-09-24T02:24:09.861Z,2.10
2018-09-24T02:26:38.873Z,2.00
2018-09-24T02:29:08.055Z,1.87
2018-09-24T02:31:41.313Z,2.10
2018-09-24T02:34:10.904Z,2.00
2018-09-24T02:36:40.599Z,2.00
2018-09-24T02:39:10.407Z,2.17
2018-09-24T02:41:39.869Z,1.97
2018-09-24T02:44:08.759Z,2.10
2018-09-24T02:46:44.148Z,2.20
2018-09-24T02:49:14.428Z,2.00
2018-09-24T02:51:43.651Z,2.40
2018-09-24T02:54:12.133Z,2.40
2018-09-24T02:56:46.358Z,2.27
2018-09-24T02:59:15.133Z,2.03
2018-09-24T03:01:43.968Z,2.30
2018-09-24T03:04:12.662Z,2.30
2018-09-24T03:06:41.494Z,2.40
2018-09-24T03:09:13.359Z,2.20
2018-09-24T03:11:42.444Z,2.43
2018-09-24T03:14:11.033Z,2.30
2018-09-24T03:16:39.723Z,2.30
2018-09-24T03:19:08.520Z,2.00
2018-09-24T03:21:37.496Z,2.20
2018-09-24T03:24:06.589Z,2.77
2018-09-24T03:26:44.467Z,2.57
2018-09-24T03:29:22.662Z,2.07
2018-09-24T03:31:51.909Z,2.50
2018-09-24T03:34:20.599Z,2.30
2018-09-24T03:36:49.706Z,1.97
2018-09-24T03:39:18.549Z,2.20
2018-09-24T03:41:47.107Z,2.20
2018-09-24T03:44:15.754Z,2.40
2018-09-24T03:46:44.292Z,2.30
2018-09-24T03:49:12.812Z,2.80
2018-09-24T03:56:51.039Z,2.60
2018-09-24T03:59:20.044Z,3.20
2018-09-24T04:01:48.629Z,3.20
2018-09-24T04:04:22.781Z,2.97
2018-09-24T04:06:56.914Z,2.80
2018-09-24T04:09:31.030Z,3.37
2018-09-24T04:12:04.961Z,3.10
2018-09-24T04:14:38.756Z,2.80
2018-09-24T04:17:12.992Z,3.00
2018-09-24T04:19:47.026Z,2.97
2018-09-24T04:22:20.931Z,2.55
2018-09-24T04:24:54.816Z,2.70
2018-09-24T04:27:28.846Z,2.60
2018-09-24T04:30:02.670Z,2.83
2018-09-24T04:32:36.318Z,2.60
2018-09-24T04:35:10.767Z,2.67
2018-09-24T04:37:44.697Z,2.27
2018-09-24T04:40:18.497Z,2.70
2018-09-24T04:42:52.343Z,2.77
2018-09-24T04:45:26.434Z,2.50
2018-09-24T04:48:00.514Z,2.80
2018-09-24T04:50:37.290Z,2.92
2018-09-24T04:53:11.312Z,2.70
2018-09-24T04:55:45.265Z,2.30
2018-09-24T05:03:18.946Z,2.50
2018-09-24T05:05:52.997Z,2.80
2018-09-24T05:08:26.976Z,2.50
2018-09-24T05:11:01.122Z,3.37
2018-09-24T05:13:35.168Z,2.97
2018-09-24T05:16:09.253Z,3.03
2018-09-24T05:18:43.193Z,3.25
2018-09-24T05:21:17.348Z,3.17
2018-09-24T05:23:51.360Z,2.43
2018-09-24T05:26:25.071Z,3.30
2018-09-24T05:28:58.855Z,4.90
2018-09-24T05:31:32.601Z,5.97
2018-09-24T05:34:06.549Z,4.93
2018-09-24T05:36:40.279Z,3.60
2018-09-24T05:39:14.596Z,3.10
2018-09-24T05:41:48.730Z,2.47
2018-09-24T05:44:22.706Z,2.63
2018-09-24T05:46:56.943Z,3.65
2018-09-24T05:49:31.343Z,3.20
2018-09-24T05:52:05.271Z,3.60
2018-09-24T05:54:39.337Z,3.90
2018-09-24T05:57:13.267Z,3.50
2018-09-24T05:59:47.212Z,3.90
2018-09-24T06:02:21.053Z,4.37
2018-09-24T06:04:55.206Z,3.50
2018-09-24T06:07:29.073Z,3.07
2018-09-24T06:10:03.242Z,3.13
2018-09-24T06:12:37.461Z,3.80
2018-09-24T06:15:11.743Z,3.27
2018-09-24T06:17:45.483Z,3.37
2018-09-24T06:20:19.496Z,3.40
2018-09-24T06:22:53.296Z,3.27
2018-09-24T06:25:27.211Z,3.73
2018-09-24T06:28:00.985Z,3.60
2018-09-24T06:30:34.825Z,3.57
2018-09-24T06:33:08.722Z,3.60
2018-09-24T06:35:42.864Z,3.63
2018-09-24T06:38:17.286Z,4.43
2018-09-24T06:40:51.287Z,3.83
2018-09-24T06:43:25.330Z,3.97
2018-09-24T06:45:59.259Z,3.70
2018-09-24T06:48:33.514Z,3.37
2018-09-24T06:51:07.579Z,3.90
2018-09-24T06:53:41.424Z,4.20
2018-09-24T06:56:15.494Z,4.30
2018-09-24T06:58:49.672Z,4.40
2018-09-24T07:01:23.675Z,4.05
2018-09-24T07:03:57.475Z,3.70
2018-09-24T07:06:31.433Z,3.67
2018-09-24T07:09:05.567Z,4.50
2018-09-24T07:11:39.471Z,3.20
2018-09-24T07:14:13.426Z,3.60
2018-09-24T07:16:47.332Z,4.73
2018-09-24T07:19:21.148Z,4.20
2018-09-24T07:21:55.098Z,3.50
2018-09-24T07:24:28.996Z,3.83
2018-09-24T07:27:03.053Z,4.00
2018-09-24T07:29:36.930Z,3.50
2018-09-24T07:32:10.884Z,3.80
2018-09-24T07:34:44.981Z,3.93
2018-09-24T07:37:19.059Z,3.43
2018-09-24T07:39:53.258Z,3.77
2018-09-24T07:42:27.541Z,3.50
2018-09-24T07:45:01.503Z,3.60
2018-09-24T07:50:29.129Z,3.70
2018-09-24T07:53:03.193Z,3.03
2018-09-24T07:55:37.371Z,3.70
2018-09-24T07:58:11.365Z,3.00
2018-09-24T08:00:45.330Z,2.80
2018-09-24T08:03:19.251Z,3.30
2018-09-24T08:05:53.463Z,2.90
2018-09-24T08:08:27.332Z,2.97
2018-09-24T08:11:01.426Z,3.70
2018-09-24T08:13:35.468Z,3.67
2018-09-24T08:16:09.404Z,3.17
2018-09-24T08:18:43.112Z,3.67
2018-09-24T08:21:16.850Z,2.77
2018-09-24T08:23:50.770Z,2.70
2018-09-24T08:26:24.870Z,2.73
2018-09-24T08:28:59.001Z,3.07
2018-09-24T08:31:33.102Z,3.23
2018-09-24T08:34:06.963Z,2.92
2018-09-24T08:36:41.632Z,2.23
2018-09-24T08:39:15.952Z,2.43
2018-09-24T08:41:50.477Z,2.03
2018-09-24T08:44:24.717Z,2.83
2018-09-24T08:46:58.740Z,3.13
2018-09-24T08:49:32.717Z,2.80
2018-09-24T08:52:06.744Z,2.43
2018-09-24T08:54:40.896Z,2.30
2018-09-24T08:57:15.066Z,2.50
2018-09-24T08:59:48.967Z,2.30
2018-09-24T09:02:22.882Z,2.07
2018-09-24T09:04:57.350Z,2.47
2018-09-24T09:07:32.026Z,2.30
2018-09-24T09:10:05.974Z,2.03
2018-09-24T09:12:40.057Z,1.83
2018-09-24T09:15:14.056Z,2.10
2018-09-24T09:17:47.938Z,2.00
2018-09-24T09:20:21.883Z,1.90
2018-09-24T09:22:56.086Z,2.00
2018-09-24T09:25:29.812Z,1.90
2018-09-24T09:28:03.741Z,2.03
2018-09-24T09:30:37.967Z,1.80
2018-09-24T09:33:12.562Z,1.67
2018-09-24T09:35:46.996Z,2.20
2018-09-24T09:38:21.410Z,1.83
2018-09-24T09:40:55.515Z,2.00
2018-09-24T09:43:29.450Z,1.70
2018-09-24T09:46:03.619Z,1.50
2018-09-24T09:48:37.840Z,1.77
2018-09-24T09:51:11.808Z,1.40
2018-09-24T09:53:45.955Z,2.00
2018-09-24T09:56:20.238Z,1.50
2018-09-24T09:58:54.553Z,1.70
2018-09-24T10:01:28.564Z,1.67
2018-09-24T10:04:02.910Z,1.90
2018-09-24T10:06:37.270Z,2.00
2018-09-24T10:09:13.773Z,1.90
2018-09-24T10:11:47.852Z,1.98
2018-09-24T10:14:21.738Z,1.73
2018-09-24T10:16:55.857Z,1.97
2018-09-24T10:19:29.692Z,1.57
2018-09-24T10:22:03.870Z,1.60
2018-09-24T10:24:37.972Z,1.50
2018-09-24T10:27:12.264Z,1.53
2018-09-24T10:29:46.783Z,1.77
2018-09-24T10:32:21.245Z,1.67
2018-09-24T10:34:55.509Z,1.60
2018-09-24T10:37:29.849Z,1.40
2018-09-24T10:40:05.148Z,1.77
2018-09-24T10:42:43.035Z,1.67
2018-09-24T10:45:19.429Z,1.70
2018-09-24T10:47:55.501Z,2.37
2018-09-24T10:50:29.595Z,1.40
2018-09-24T10:53:03.799Z,1.37
2018-09-24T10:55:38.394Z,1.63
2018-09-24T10:58:12.899Z,1.67
2018-09-24T11:00:47.441Z,1.70
2018-09-24T11:03:21.918Z,1.40
2018-09-24T11:05:55.917Z,2.10
2018-09-24T11:08:29.901Z,1.60
2018-09-24T11:11:04.019Z,1.70
2018-09-24T11:13:38.023Z,1.87
2018-09-24T11:16:12.176Z,1.43
2018-09-24T11:18:46.024Z,1.30
2018-09-24T11:21:20.512Z,1.40
2018-09-24T11:23:55.072Z,1.50
2018-09-24T11:29:03.633Z,2.00
2018-09-24T11:31:38.245Z,2.10
2018-09-24T11:34:12.706Z,1.50
2018-09-24T11:36:47.034Z,1.70
2018-09-24T11:39:21.021Z,1.60
2018-09-24T11:41:55.171Z,1.47
2018-09-24T11:44:29.478Z,1.33
2018-09-24T11:47:03.814Z,1.63
2018-09-24T11:49:39.412Z,1.80
2018-09-24T11:52:13.426Z,1.43
2018-09-24T11:54:49.003Z,1.50
2018-09-24T11:57:23.126Z,1.40
2018-09-24T11:59:57.244Z,1.85
2018-09-24T12:02:32.081Z,1.60
2018-09-24T12:05:06.227Z,1.80
2018-09-24T12:07:40.350Z,1.37
2018-09-24T12:10:14.717Z,1.50
2018-09-24T12:12:48.468Z,1.40
2018-09-24T12:15:22.296Z,1.20
2018-09-24T12:17:56.186Z,1.50
2018-09-24T12:20:31.503Z,1.50
2018-09-24T12:23:05.371Z,1.67
2018-09-24T12:25:39.835Z,1.60
2018-09-24T12:28:14.068Z,1.40
2018-09-24T12:30:49.315Z,1.43
2018-09-24T12:33:23.379Z,1.83
2018-09-24T12:35:57.564Z,1.50
2018-09-24T12:38:32.185Z,1.63
2018-09-24T12:41:06.683Z,1.90
2018-09-24T12:43:40.810Z,1.33
2018-09-24T12:46:20.106Z,1.37
2018-09-24T12:48:54.178Z,1.20
2018-09-24T12:51:29.351Z,1.30
2018-09-24T12:54:03.921Z,1.70
2018-09-24T12:56:38.340Z,1.70
2018-09-24T12:59:12.588Z,1.47
2018-09-24T13:01:47.092Z,2.10
2018-09-24T13:04:21.760Z,1.40
2018-09-24T13:06:55.808Z,1.70
2018-09-24T13:09:29.804Z,1.50
2018-09-24T13:12:03.755Z,1.30
2018-09-24T13:14:38.056Z,1.40
2018-09-24T13:17:12.469Z,1.50
2018-09-24T13:19:46.681Z,1.47
2018-09-24T13:22:20.677Z,1.50
2018-09-24T13:24:54.669Z,1.60
2018-09-24T13:27:29.546Z,1.30
2018-09-24T13:30:03.538Z,1.37
2018-09-24T13:32:37.705Z,1.72
2018-09-24T13:35:12.074Z,1.60
2018-09-24T13:37:45.885Z,1.30
2018-09-24T13:40:19.745Z,1.70
2018-09-24T13:42:53.954Z,1.50
2018-09-24T13:45:30.986Z,1.30
2018-09-24T13:48:04.988Z,1.40
2018-09-24T13:50:39.152Z,1.40
2018-09-24T13:53:15.947Z,1.70
2018-09-24T13:55:50.395Z,1.60
2018-09-24T13:58:25.626Z,1.70
2018-09-24T14:00:59.738Z,1.43
2018-09-24T14:03:33.873Z,1.20
2018-09-24T14:06:07.964Z,1.30
2018-09-24T14:08:41.767Z,1.40
2018-09-24T14:11:15.598Z,1.63
2018-09-24T14:13:51.029Z,1.40
2018-09-24T14:16:25.109Z,1.77
2018-09-24T14:18:58.970Z,1.80
2018-09-24T14:21:33.755Z,1.30
2018-09-24T14:24:12.016Z,1.50
2018-09-24T14:26:47.253Z,1.30
2018-09-24T14:29:24.419Z,1.30
2018-09-24T14:31:58.707Z,1.40
2018-09-24T14:34:33.713Z,1.70
2018-09-24T14:37:11.217Z,1.70
2018-09-24T14:39:45.964Z,1.47
2018-09-24T14:42:20.689Z,1.50
2018-09-24T14:44:54.932Z,1.30
2018-09-24T14:47:29.397Z,1.10
2018-09-24T14:50:03.807Z,1.60
2018-09-24T14:52:38.115Z,1.40
2018-09-24T14:55:12.426Z,1.53
2018-09-24T14:57:46.476Z,1.40
2018-09-24T15:00:20.351Z,1.40
2018-09-24T15:02:54.773Z,1.50
2018-09-24T15:05:28.644Z,1.20
2018-09-24T15:08:03.193Z,1.47
2018-09-24T15:10:37.384Z,1.37
2018-09-24T15:13:11.625Z,1.30
2018-09-24T15:15:46.232Z,1.30
2018-09-24T15:18:20.528Z,1.60
2018-09-24T15:20:54.552Z,1.33
2018-09-24T15:23:28.697Z,1.20
2018-09-24T15:26:04.694Z,1.40
2018-09-24T15:28:40.410Z,1.60
2018-09-24T15:31:17.933Z,1.30
2018-09-24T15:33:52.747Z,1.50
2018-09-24T15:36:27.007Z,1.10
2018-09-24T15:39:01.086Z,1.23
2018-09-24T15:41:35.079Z,1.67
2018-09-24T15:44:09.390Z,1.83
2018-09-24T15:46:50.495Z,3.43
2018-09-24T15:49:24.565Z,1.60
2018-09-24T15:51:59.110Z,8.67
2018-09-24T15:54:32.941Z,1.70
2018-09-24T15:57:07.433Z,1.37
2018-09-24T15:59:41.409Z,1.50
2018-09-24T16:02:15.596Z,1.40
2018-09-24T16:04:49.655Z,1.60
2018-09-24T16:07:24.418Z,1.57
2018-09-24T16:09:58.596Z,1.50
2018-09-24T16:12:32.625Z,1.27
2018-09-24T16:15:07.303Z,1.13
2018-09-24T16:17:42.128Z,1.50
2018-09-24T16:20:16.803Z,1.63
2018-09-24T16:22:51.326Z,1.60
2018-09-24T16:25:25.892Z,1.60
2018-09-24T16:28:00.020Z,1.80
2018-09-24T16:30:36.054Z,1.57
2018-09-24T16:33:10.346Z,1.60
2018-09-24T16:35:44.862Z,1.50
2018-09-24T16:38:19.632Z,1.70
2018-09-24T16:40:54.097Z,1.60
2018-09-24T16:43:30.396Z,1.50
2018-09-24T16:46:04.987Z,1.52
2018-09-24T16:48:39.877Z,3.40
2018-09-24T16:51:14.367Z,1.50
2018-09-24T16:53:48.578Z,1.50
2018-09-24T16:56:22.307Z,1.40
2018-09-24T16:58:56.550Z,1.40
2018-09-24T17:01:30.472Z,2.23
2018-09-24T17:04:04.538Z,1.60
2018-09-24T17:06:38.571Z,1.90
2018-09-24T17:09:14.803Z,1.70
2018-09-24T17:14:32.439Z,1.70
2018-09-24T17:17:06.948Z,1.60
2018-09-24T17:19:40.880Z,1.63
2018-09-24T17:22:15.929Z,1.30
2018-09-24T17:24:50.282Z,1.30
2018-09-24T17:27:25.091Z,1.67
2018-09-24T17:29:59.808Z,1.50
2018-09-24T17:32:34.314Z,1.52
2018-09-24T17:35:08.871Z,1.40
2018-09-24T17:37:45.806Z,1.80
2018-09-24T17:40:19.988Z,1.40
2018-09-24T17:42:54.465Z,1.80
2018-09-24T17:45:28.765Z,1.50
2018-09-24T17:48:02.898Z,1.90
2018-09-24T17:50:37.455Z,2.17
2018-09-24T17:53:11.627Z,1.47
2018-09-24T17:55:45.912Z,1.60
2018-09-24T17:58:19.943Z,5.07
2018-09-24T18:00:54.029Z,4.53
2018-09-24T18:03:28.386Z,1.67
2018-09-24T18:06:03.132Z,1.53
2018-09-24T18:08:38.210Z,1.50
2018-09-24T18:11:12.561Z,1.40
2018-09-24T18:13:48.100Z,1.73
2018-09-24T18:16:22.411Z,1.70
2018-09-24T18:18:56.566Z,1.72
2018-09-24T18:21:30.589Z,4.90
2018-09-24T18:24:04.859Z,10.00
2018-09-24T18:26:39.480Z,4.27
2018-09-24T18:29:13.585Z,1.80
2018-09-24T18:31:47.892Z,2.03
2018-09-24T18:34:22.272Z,1.63
2018-09-24T18:36:56.466Z,2.20
2018-09-24T18:39:30.662Z,1.47
2018-09-24T18:42:04.787Z,1.50
2018-09-24T18:44:38.757Z,1.70
2018-09-24T18:47:13.117Z,1.82
2018-09-24T18:49:47.682Z,1.50
2018-09-24T18:52:21.845Z,1.80
2018-09-24T18:54:55.743Z,1.33
2018-09-24T18:57:31.589Z,1.60
2018-09-24T19:00:05.680Z,1.90
2018-09-24T19:02:40.350Z,1.70
2018-09-24T19:05:26.971Z,3.02
2018-09-24T19:08:00.976Z,2.10
2018-09-24T19:10:35.413Z,1.97
2018-09-24T19:13:10.121Z,2.20
2018-09-24T19:15:44.532Z,1.77
2018-09-24T19:18:18.915Z,2.60
2018-09-24T19:20:53.377Z,2.27
2018-09-24T19:23:27.402Z,2.47
2018-09-24T19:26:01.855Z,2.30
2018-09-24T19:28:36.251Z,2.37
2018-09-24T19:31:10.657Z,2.77
2018-09-24T19:33:44.651Z,4.63
2018-09-24T19:36:18.786Z,6.00
2018-09-24T19:38:53.010Z,4.90
2018-09-24T19:41:26.833Z,4.70
2018-09-24T19:44:01.261Z,3.50
2018-09-24T19:46:35.050Z,5.03
2018-09-24T19:49:09.153Z,3.40
2018-09-24T19:51:42.978Z,3.97
2018-09-24T19:54:17.127Z,3.50
2018-09-24T19:56:52.457Z,3.30
2018-09-24T19:59:28.116Z,3.30
2018-09-24T20:02:02.679Z,5.03
2018-09-24T20:04:36.676Z,3.33
2018-09-24T20:07:11.976Z,5.20
2018-09-24T20:09:46.171Z,6.60
2018-09-24T20:12:20.163Z,5.90
2018-09-24T20:14:54.264Z,3.70
2018-09-24T20:17:28.578Z,4.07
2018-09-24T20:20:02.775Z,2.73
2018-09-24T20:22:36.725Z,2.70
2018-09-24T20:25:10.844Z,2.87
2018-09-24T20:27:44.801Z,3.00
2018-09-24T20:30:18.881Z,2.90
2018-09-24T20:32:52.648Z,3.37
2018-09-24T20:35:26.554Z,3.00
2018-09-24T20:38:00.780Z,3.58
2018-09-24T20:40:34.795Z,3.53
2018-09-24T20:43:08.735Z,3.07
2018-09-24T20:45:42.814Z,2.97
2018-09-24T20:48:17.114Z,4.27
2018-09-24T20:50:52.495Z,3.80
2018-09-24T20:53:26.484Z,3.80
2018-09-24T20:56:01.292Z,3.43
2018-09-24T20:58:35.499Z,3.30
2018-09-24T21:01:10.949Z,3.75
2018-09-24T21:03:45.002Z,3.45
2018-09-24T21:06:19.221Z,3.58
2018-09-24T21:08:54.921Z,4.37
2018-09-24T21:11:30.832Z,3.87
2018-09-24T21:14:05.771Z,3.93
2018-09-24T21:16:39.873Z,3.60
2018-09-24T21:19:13.993Z,3.60
2018-09-24T21:21:48.392Z,3.07
2018-09-24T21:24:22.169Z,3.43
2018-09-24T21:26:56.413Z,3.20
2018-09-24T21:29:30.527Z,3.47
2018-09-24T21:32:04.441Z,3.97
2018-09-24T21:34:38.364Z,5.77
2018-09-24T21:37:12.649Z,2.40
2018-09-24T21:39:46.795Z,3.30
2018-09-24T21:42:20.719Z,2.50
2018-09-24T21:45:01.093Z,2.60
2018-09-24T21:47:35.231Z,2.40
2018-09-24T21:50:09.515Z,2.20
2018-09-24T21:52:43.307Z,3.17
2018-09-24T21:55:17.487Z,3.43
2018-09-24T21:57:51.514Z,3.33
2018-09-24T22:00:25.473Z,3.10
2018-09-24T22:02:59.381Z,4.10
2018-09-24T22:05:33.326Z,4.33
2018-09-24T22:08:07.347Z,3.77
2018-09-24T22:10:42.924Z,3.40
2018-09-24T22:13:17.019Z,6.50
2018-09-24T22:15:51.032Z,6.50
2018-09-24T22:18:24.956Z,10.00
2018-09-24T22:20:59.113Z,17.00
2018-09-24T22:23:33.101Z,7.07
2018-09-24T22:26:07.298Z,5.00
2018-09-24T22:28:42.759Z,8.10
2018-09-24T22:31:17.027Z,5.60
2018-09-24T22:33:50.856Z,5.23
2018-09-24T22:36:24.855Z,4.95
2018-09-24T22:38:58.979Z,6.27
2018-09-24T22:41:33.380Z,7.00
2018-09-24T22:44:07.886Z,3.70
2018-09-24T22:46:41.980Z,2.30
2018-09-24T22:49:16.308Z,2.60
2018-09-24T22:51:52.277Z,2.60
2018-09-24T22:54:26.414Z,2.43
2018-09-24T22:57:00.382Z,2.30
2018-09-24T22:59:36.863Z,2.40
2018-09-24T23:02:11.142Z,2.80
2018-09-24T23:04:45.245Z,2.70
2018-09-24T23:07:19.331Z,2.53
2018-09-24T23:09:53.644Z,2.90
2018-09-24T23:12:27.959Z,2.83
2018-09-24T23:15:02.044Z,2.80
2018-09-24T23:17:36.070Z,2.37
2018-09-24T23:20:10.179Z,2.30
2018-09-24T23:22:44.212Z,1.90
2018-09-24T23:25:18.020Z,1.95
2018-09-24T23:27:52.179Z,2.72
2018-09-24T23:30:25.957Z,2.80
2018-09-24T23:33:00.248Z,2.30
2018-09-24T23:35:34.436Z,2.10
2018-09-24T23:38:08.593Z,2.30
2018-09-24T23:40:43.189Z,2.33
2018-09-24T23:43:18.051Z,2.37
2018-09-24T23:45:52.251Z,2.40
2018-09-24T23:48:26.262Z,1.97
2018-09-24T23:51:00.335Z,2.10
2018-09-24T23:53:34.558Z,2.25
2018-09-24T23:56:08.620Z,1.90
2018-09-24T23:58:43.044Z,2.07
